LUKK/KIV METAR and TAF weather

Enter ICAO airport designator
Station Type Date Time Source
LUKK METAR 2019/05/21 21:30 UTC NOAA

LUKK 212130Z 26003KT CAVOK 14/08 Q1011 R26/CLRD// NOSIG


Station Type Date Time Source
LUKK Decoded METAR 2019/05/21 21:30 UTC NOAA

Chisinau International Airport, Moldova (LUKK) 46-55-40N 028-55-51E
May 21, 2019 - 05:30 PM EDT / 2019.05.21 2130 UTC
Wind: from the W (260 degrees) at 3 MPH (3 KT):0
Visibility: greater than 7 mile(s):0
Temperature: 57 F (14 C)
Dew Point: 46 F (8 C)
Relative Humidity: 67%
Pressure (altimeter): 29.85 in. Hg (1011 hPa)
ob: LUKK 212130Z 26003KT CAVOK 14/08 Q1011 R26/CLRD// NOSIG
cycle: 21

Station Type Date Time Source
LUKK TAF 2019/05/21 19:23 UTC NOAA

TAF
AMD LUKK 211918Z 2119/2218 VRB06KT CAVOK
TEMPO 2209/2216 SCT040CB

Example: see airport list